Reno (UNR), Valley Road, Nevada Weather observations

Data are for observation ending at time listed.
 Day   Time    Ave.   Ave.  Ave.  Vector   Max.    Total    Solar   Rl      Baro.   Ave.  
  of    of     Air    Rel.  Wind   Wind    Wind   Precip.   Rad.    in      Pres.   Soil  
Year   Day     Temp.  Hum.  Speed  Dir.    Gust                                     Temp. 
2014   (PST)    F      %     mph   deg.    mph      in.     W/m2    W/m2     mb.     F   
-----------------------------------------------------------------------------------------
 210    1:10   74.3    33    3.1   306      6.3     0.00       0     405    860.0   79.2
 210    1:20   74.1    33    2.3   303      6.4     0.00       0     405    860.1   79.1
 210    1:30   73.6    34    0.8   132      3.4     0.00       0     408    860.1   79.0
 210    1:40   73.2    37    0.9   161      2.8     0.00       0     408    860.1   78.9
 210    1:50   71.3    44    1.3   223      2.4     0.00       0     411    860.2   78.8
 210    2:00   70.4    46    0.5    18      1.8     0.00       0     406    860.3   78.7
 210    2:10   70.5    45    0.7   111      2.6     0.00       0     398    860.3   78.7
 210    2:20   69.9    48    0.5   315      2.2     0.00       0     388    860.4   78.6
 210    2:30   69.0    51    1.0   320      2.6     0.00       0     386    860.4   78.5
 210    2:40   68.3    53    0.0     0      0.0     0.00       0     387    860.5   78.4
 210    2:50   67.7    55    0.7   293      2.2     0.00       0     389    860.6   78.3
 210    3:00   67.6    54    1.4   276      3.0     0.00       0     393    860.6   78.2
 210    3:10   67.7    54    0.6    42      2.6     0.00       0     397    860.6   78.2
 210    3:20   68.0    55    2.6    74      3.8     0.00       0     403    860.7   78.1
 210    3:30   68.3    54    2.0    71      4.6     0.00       0     409    860.8   78.0
 210    3:40   68.6    52    2.7   346      5.6     0.00       0     409    860.8   77.9
 210    3:50   69.3    51    2.3    20      4.6     0.00       0     406    860.8   77.8
 210    4:00   68.6    52    0.8   298      2.5     0.00       0     408    860.9   77.8
 210    4:10   68.4    55    1.4   338      3.1     0.00       0     410    860.9   77.7
 210    4:20   67.9    55    1.9   255      3.1     0.00       0     408    860.9   77.6
 210    4:30   68.6    51    2.0   247      3.1     0.00       0     403    860.9   77.5
 210    4:40   68.2    54    0.7   282      2.4     0.00       0     401    860.9   77.5
 210    4:50   67.8    57    1.7    27      3.5     0.00       0     398    861.0   77.4
 210    5:00   67.9    54    0.6   272      2.8     0.00       1     394    861.0   77.3
 210    5:10   67.9    55    0.9   246      2.6     0.00       3     398    861.0   77.3
 210    5:20   68.9    51    2.2   216      4.8     0.00       8     398    861.0   77.2
 210    5:30   70.2    49    2.0   199      3.7     0.00      18     397    861.0   77.1
 210    5:40   70.7    46    1.4   241      9.6     0.00      27     395    861.1   77.1
 210    5:50   71.9    38    1.7   298      7.3     0.00      35     398    861.1   77.0
 210    6:00   73.3    35    1.4   309      3.9     0.00      44     400    861.2   76.9
 210    6:10   72.1    45    2.3   133      3.8     0.00      49     399    861.2   76.9
 210    6:20   71.5    49    1.5   121      3.4     0.00      56     398    861.2   76.8
 210    6:30   71.3    48    1.5    84      5.2     0.00      73     405    861.1   76.8
 210    6:40   71.5    49    2.1    12      4.3     0.00      81     403    861.1   76.7
 210    6:50   71.0    49    2.5    28      6.0     0.00      82     402    861.1   76.7
 210    7:00   71.8    46    1.3    76      5.2     0.00     101     402    861.2   76.6
 210    7:10   72.3    45    2.8    38      5.7     0.00     138     404    861.2   76.6
 210    7:20   73.7    42    0.8   302      3.3     0.00     214     399    861.1   76.5
 210    7:30   75.7    37    3.1   318      8.1     0.00     360     398    861.0   76.5
 210    7:40   76.5    34    5.7   343      8.3     0.00     306     400    860.8   76.5
 210    7:50   76.8    34    5.0   353      8.3     0.00     320     393    860.5   76.4
 210    8:00   77.6    33    3.6   347      6.5     0.00     417     390    860.4   76.4
 210    8:10   79.6    31    4.4   355      7.4     0.00     579     398    860.2   76.4
 210    8:20   80.0    31    4.8     7      8.3     0.00     445     400    860.0   76.4
 210    8:30   80.0    29    3.2   356      8.7     0.00     279     394    859.8   76.5
 210    8:40   82.1    27    2.2   352      7.6     0.00     418     400    859.7   76.5
 210    8:50   81.9    28    5.0    17      7.4     0.00     268     403    859.6   76.6
 210    9:00   80.9    28    3.2    19      7.3     0.00     240     398    859.4   76.7
 210    9:10   83.5    26    2.7   129      5.3     0.00     743     404    859.4   76.7
 210    9:20   85.9    24    3.7    27     11.8     0.00     709     412    859.2   76.9
 210    9:30   85.2    25    7.8    11     19.5     0.00     723     413    859.1   76.9
 210    9:40   84.6    25    9.9   358     15.0     0.00     719     410    858.9   77.0
 210    9:50   85.0    24    9.9   360     15.0     0.00     705     409    858.8   77.1
 210   10:00   85.3    25   10.3     8     18.7     0.00     853     409    858.8   77.2
 210   10:10   85.7    24    9.1   353     16.1     0.00     861     408    858.8   77.3
 210   10:20   86.5    23    9.4   349     15.5     0.00     896     414    858.6   77.3
 210   10:30   86.8    22    9.1   339     18.3     0.00     916     416    858.5   77.4
 210   10:40   87.3    21    7.3   348     14.0     0.00     994     420    858.3   77.5
 210   10:50   87.8    19    7.7   318     13.1     0.00     836     432    858.2   77.6
 210   11:00   88.5    19    6.1   322     14.6     0.00     798     438    857.9   77.8
 210   11:10   88.9    20    5.9   338     14.6     0.00     985     439    857.8   78.0
 210   11:20   88.2    20    7.7   319     16.3     0.00    1063     442    857.6   78.2
 210   11:30   89.0    20    7.2   328     15.2     0.00     788     445    857.4   78.4
 210   11:40   88.9    19    7.2   314     13.6     0.00     831     442    857.2   78.7
 210   11:50   89.5    19    7.5   315     14.8     0.00     887     444    857.1   78.9
 210   12:00   89.5    20    7.4   333     15.8     0.00     799     447    857.0   79.2
 210   12:10   88.9    19    6.9   308     13.3     0.00     938     443    857.0   79.5
 210   12:20   89.8    19    5.4   341     15.9     0.00     527     447    856.8   79.8
 210   12:30   88.8    20    6.6   319     15.4     0.00     618     436    856.6   80.1
 210   12:40   89.4    20    6.4   327     14.3     0.00     764     443    856.6   80.4
 210   12:50   89.7    18    7.4   296     16.3     0.00     358     445    856.4   80.7
 210   13:00   88.2    19    7.1   304     18.5     0.00     321     444    856.5   80.9
 210   13:10   88.2    20    7.6   315     13.7     0.00     297     449    856.5   81.2
 210   13:20   87.5    20    9.3   332     15.1     0.00     283     451    856.6   81.4
 210   13:30   87.3    20    8.4   309     17.7     0.00     239     449    856.6   81.6
 210   13:40   87.0    21    8.7   329     15.3     0.00     248     448    856.7   81.8
 210   13:50   86.6    22    7.6   345     17.4     0.00     346     449    856.6   82.0
 210   14:00   88.0    20    6.9   307     14.6     0.00     395     452    856.6   82.1
 210   14:10   88.3    20    9.6   317     14.6     0.00     541     446    856.5   82.2
 210   14:20   90.1    18    7.1   295     13.1     0.00     809     439    856.4   82.3
 210   14:30   89.6    19    8.0   319     13.6     0.00     635     434    856.2   82.4
 210   14:40   89.3    18    7.5   290     12.8     0.00     492     439    856.1   82.5
 210   14:50   89.1    18    9.1   317     15.3     0.00     598     438    856.0   82.5
 210   15:00   89.7    18    7.5   302     17.2     0.00     492     435    855.9   82.6
 210   15:10   89.2    19    9.6   326     17.8     0.00     550     431    855.8   82.7
 210   15:20   89.9    18    8.0   324     14.8     0.00     570     427    855.8   82.8
 210   15:30   88.0    20    7.8   352     17.2     0.00     293     421    855.8   82.9
 210   15:40   89.5    19    7.0   334     17.6     0.00     677     428    855.9   83.0
 210   15:50   90.5    17    7.5   312     14.2     0.00     756     433    855.8   83.1
 210   16:00   91.0    17    7.3   306     14.6     0.00     702     435    855.7   83.2
 210   16:10   89.9    18    5.8   347     12.6     0.00     326     425    855.6   83.2
 210   16:20   87.6    20    8.6    10     13.7     0.00     160     419    855.6   83.3
 210   16:30   86.9    21    4.6   355      8.4     0.00     141     416    855.6   83.4
 210   16:40   87.8    18    4.3   291      8.5     0.00      92     412    855.7   83.5
 210   16:50   87.4    19    3.5   323      7.0     0.00      91     414    855.8   83.6
 210   17:00   86.8    20    4.6   350      8.2     0.00     124     426    855.8   83.7
 210   17:10   87.5    19    3.5   294      6.4     0.00     148     437    855.9   83.7
 210   17:20   88.5    18    2.9   265      5.0     0.00     136     441    855.9   83.8
 210   17:30   88.3    18    5.2   202     19.2     0.00     149     447    855.9   83.8
 210   17:40   85.7    24    9.0   179     18.9     0.00     221     440    855.9   83.8
 210   17:50   85.0    26   10.2   172     18.0     0.00     299     436    856.0   83.8
 210   18:00   84.4    26    9.9   166     16.8     0.00     151     432    856.1   83.8
 210   18:10   83.4    27    9.5   166     18.2     0.00     101     425    856.2   83.8
 210   18:20   82.6    28    9.3   158     17.5     0.00      66     416    856.4   83.8
 210   18:30   82.1    28    9.6   150     15.8     0.00      37     410    856.6   83.7
 210   18:40   81.5    29    9.5   148     15.2     0.00      22     406    856.7   83.7
 210   18:50   81.4    28    7.0   156     12.1     0.00      14     402    856.8   83.6
 210   19:00   81.3    28    5.2   160      9.5     0.00      10     393    857.0   83.6
 210   19:10   80.8    29    5.2   140      7.8     0.00       6     399    857.2   83.6
 210   19:20   80.7    30    5.8   130      9.0     0.00       3     398    857.3   83.5
 210   19:30   79.8    30    4.0     4      8.0     0.00       1     396    857.7   83.4
 210   19:40   79.4    31    3.4   345      4.7     0.00       0     393    858.0   83.4
 210   19:50   79.8    30    4.0   288      7.8     0.00       0     392    858.1   83.3
 210   20:00   81.2    27    6.0   275     10.1     0.00       0     392    858.3   83.2
 210   20:10   81.6    27    5.3   281      9.1     0.00       0     393    858.4   83.1
 210   20:20   80.9    27    4.3   268      7.1     0.00       0     397    858.5   83.0
 210   20:30   80.7    27    4.4   277      8.2     0.00       0     401    858.6   82.9
 210   20:40   80.3    28    4.9   293      8.6     0.00       0     404    858.7   82.8
 210   20:50   80.2    28    5.9   287     10.1     0.00       0     398    858.8   82.7
 210   21:00   79.8    29    5.6   296     10.3     0.00       0     395    858.9   82.5
 210   21:10   79.7    29    6.6   273     14.1     0.00       0     395    859.0   82.4
 210   21:20   79.4    29    5.0   285     11.8     0.00       0     394    859.0   82.3
 210   21:30   79.0    30    4.1   294      8.2     0.00       0     391    859.1   82.2
 210   21:40   78.2    31    2.8   315      6.4     0.00       0     387    859.3   82.1
 210   21:50   77.2    32    3.8     2      6.8     0.00       0     384    859.4   82.0
 210   22:00   77.3    32    3.4   177      7.1     0.00       0     385    859.5   81.9
 210   22:10   76.2    35    2.6    66      4.0     0.00       0     385    859.7   81.8
 210   22:20   76.1    33    2.5    82      3.6     0.00       0     378    859.6   81.7
 210   22:30   74.9    36    1.6   315      4.0     0.00       0     377    859.6   81.6
 210   22:40   73.3    38    1.8   271      5.0     0.00       0     376    859.8   81.4
 210   22:50   73.0    39    1.5   310      3.7     0.00       0     373    859.8   81.3
 210   23:00   72.2    40    3.1   292      5.2     0.00       0     371    859.8   81.2
 210   23:10   72.1    40    3.6   304      5.1     0.00       0     372    859.8   81.1
 210   23:20   72.5    38    2.5   217      4.0     0.00       0     372    860.0   81.0
 210   23:30   72.4    38    2.7   232      4.5     0.00       0     371    860.2   80.9
 210   23:40   70.1    45    3.0   316      4.1     0.00       0     367    860.1   80.8
 210   23:50   69.7    44    2.4   294      4.8     0.00       0     364    860.2   80.6
 211    0:00   70.8    41    1.5   256      4.8     0.00       0     367    860.2   80.5
 211    0:10   71.4    38    2.1   220      5.0     0.00       0     373    860.3   80.4
 211    0:20   71.0    41    0.7   302      2.2     0.00       0     373    860.4   80.3
 211    0:30   69.9    44    1.3   105      3.1     0.00       0     369    860.6   80.2
 211    0:40   68.3    48    2.8   315      4.0     0.00       0     367    860.6   80.0
 211    0:50   68.0    47    1.4   272      3.4     0.00       0     365    860.5   79.9
 211    1:00   67.4    49    0.6   338      3.0     0.00       0     361    860.5   79.8

Return to Reno (UNR), Nevada graphs page.


Western Regional Climate Center,wrcc@dri.edu